Thornburg, Virginia
Current Conditions -  °F | °C
As of 4:35 AM on Thursday 18 Dec 2014 (Local Time) from KEZF Reporting Station
Clear Clear  
Wind Chill: 24°   Ceiling: Unl
Heat Index: 31°   Visibility: 10mi
Dew Point: 25°   Wind: 7mph
Humidity: 80%   Direction: 350°N
Pressure: 30.12"   Gusts: NA
Location:  38.13°N, 77.52°W
Report Text: KEZF 180935Z AUTO 35006KT 10SM CLR M01/M04 A3012 RMK AO2 T10071037
Loading
Personal Weather Stations






























Interactive Weather Map New forecast layout! Learn more

10-Day Weather Forecast

Advertisements
Track Severe Weather on mobile